• Join FlightAware (Why Join?)
  • Login
  • US Flag 
11:25AM EDT


 

Airport Tracker/Info


-or-


 

Live Flight TrackerFlight Track Log ✈ AAY846 ✈ 03-Feb-2014 ✈ KPIE - KSFB

Flight Track Log - Related Links

Times and Time Zones

All times are in EST time to prevent confusion due to time zone crossing. See the AAY846 flight status page for this flight to view local times or setup timezone preferences in your user account.

Time Position Orientation Groundspeed Altitude Reporting Facility
EST Latitude Longitude Course Direction KTS MPH feet Rate Location/Type
08:12AM 27.8833 -82.6833 180° South 162 186 1,500  Level Tampa TRACON
08:13AM 27.8333 -82.6833 180° South 203 234 1,700 300 Climbing Tampa TRACON
08:14AM 27.8167 -82.7333 249° West 212 244 2,100 180 Climbing Tampa TRACON
08:15AM 27.8667 -82.7833 319° Northwest 234 269 2,100  Level Tampa TRACON
08:16AM 27.9167 -82.8000 344° North 226 260 2,100  Level Tampa TRACON
08:17AM 27.9833 -82.8000 360° North 226 260 2,100  Level Tampa TRACON
08:18AM 28.0500 -82.8167 348° North 229 264 2,100  Level Tampa TRACON
08:19AM 28.1000 -82.8000 16° North 229 264 2,100 -180 Level Tampa TRACON
08:20AM 28.1000 -82.7333 90° East 211 243 1,800 -240 Descending Tampa TRACON
08:21AM 28.0500 -82.7167 164° South 151 174 1,700 -60 Descending Tampa TRACON
08:22AM 28.0167 -82.7000 156° South 151 174 1,700 -300 Level Tampa TRACON
08:23AM 27.9833 -82.7000 180° South 134 154 1,200 -180 Descending Tampa TRACON
08:25AM 27.9000 -82.6833 170° South 147 169 1,200 120 Level Tampa TRACON
08:26AM 27.8667 -82.7167 221° Southwest 198 228 1,700 900 Climbing Tampa TRACON
08:27AM 27.8500 -82.7833 254° West 232 267 3,100 660 Climbing Tampa TRACON
08:28AM 27.8333 -82.8500 254° West 261 300 3,100  Level Tampa TRACON
08:29AM 27.8833 -82.9167 310° West 285 328 3,100  Level Tampa TRACON
08:30AM 27.9500 -82.9167 360° North 283 326 3,100  Level Tampa TRACON
08:31AM 28.0333 -82.9000 10° North 279 321 3,100 1,200 Level Tampa TRACON
08:32AM 28.0500 -82.8167 77° East 262 302 5,600 2,520 Climbing Tampa TRACON
08:33AM 27.9833 -82.7667 146° Southeast 279 321 8,200 2,520 Climbing Tampa TRACON
08:34AM 27.9167 -82.7167 146° Southeast 297 342 10,700 1,920 Climbing Tampa TRACON
08:35AM 27.8500 -82.6833 156° South 298 343 12,100 360 Climbing Tampa TRACON
08:37AM 27.6922 -82.5831 151° Southeast 324 373 12,000 -60 Descending Miami Center
08:38AM 27.6167 -82.5372 152° Southeast 311 358 12,000  Level Miami Center
08:39AM 27.5522 -82.4800 142° Southeast 306 352 12,000  Level Miami Center
08:40AM 27.5642 -82.3894 82° East 263 303 12,000 480 Level Miami Center
08:41AM 27.6433 -82.3322 33° Northeast 236 272 13,000 480 Climbing Miami Center
08:42AM 27.7217 -82.2539 42° Northeast 306 352 13,000  Level Miami Center
08:44AM 27.8500 -82.1333 40° Northeast 322 371 13,000  Level Orlando TRACON
08:45AM 27.9167 -82.0667 41° Northeast 322 371 13,000  Level Orlando TRACON
08:46AM 28.0000 -82.0000 35° Northeast 322 371 13,000  Level Orlando TRACON
08:47AM 28.0667 -81.9167 48° Northeast 322 371 13,000  Level Orlando TRACON
08:48AM 28.1333 -81.8333 48° Northeast 324 373 13,100 -480 Climbing Orlando TRACON
08:49AM 28.1667 -81.7500 66° East 322 371 12,100 -1,260 Descending Orlando TRACON
08:50AM 28.2167 -81.6667 56° Northeast 319 367 10,600 -1,140 Descending Orlando TRACON
08:51AM 28.2500 -81.5833 66° East 308 354 10,000 -300 Descending Orlando TRACON
08:52AM 28.3000 -81.5000 56° Northeast 302 348 10,000  Level Orlando TRACON
08:53AM 28.3333 -81.4000 69° East 309 356 10,000  Level Orlando TRACON
08:54AM 28.3500 -81.3167 77° East 304 350 10,000  Level Orlando TRACON
08:55AM 28.3833 -81.2167 69° East 306 352 10,000 -480 Level Orlando TRACON
08:56AM 28.4167 -81.1333 66° East 308 354 9,000 -1,680 Descending Orlando TRACON
08:57AM 28.4667 -81.0667 50° Northeast 295 339 6,700 -2,040 Descending Orlando TRACON
08:58AM 28.5500 -81.0667 360° North 282 325 5,000 -1,380 Descending Orlando TRACON
08:59AM 28.6167 -81.0333 24° Northeast 248 285 4,000 -1,080 Descending Orlando TRACON
09:00AM 28.6667 -81.0000 30° Northeast 233 268 3,000 -1,320 Descending Orlando TRACON
09:01AM 28.7167 -81.0167 344° North 221 254 1,700 -660 Descending Orlando TRACON
09:02AM 28.7667 -81.0500 330° Northwest 175 201 1,700  Level Orlando TRACON
09:03AM 28.7833 -81.0833 300° West 180 207 1,700 -180 Level Orlando TRACON
09:04AM 28.7833 -81.1333 270° West 164 189 1,400 -540 Descending Orlando TRACON
09:05AM 28.7833 -81.1833 270° West 136 157 700 -720 Descending Orlando TRACON
09:07AM 28.7667 -81.2333 263° West  Level FlightAware Approximate
09:14AM 28.7770 -81.2349 263° West  Level Estimated
09:15AM 28.7770 -81.2349 263° West  Level Estimated